Time;durP1;ratioP1;P1;durP2;ratioP2;P2;SDS_P1;SDS_P2;PMS_P1;PMS_P2;Temp;Humidity;BMP_temperature;BMP_pressure;BME280_temperature;BME280_humidity;BME280_pressure;Samples;Min_cycle;Max_cycle;Signal;HPM_P1;HPM_P2
2022/11/20 00:02:36;;;;;;;16.60;9.43;;;;;;;11.52;100.00;100957.09;10408846;28;98264;-74
2022/11/20 00:07:39;;;;;;;14.85;10.20;;;;;;;11.52;100.00;100960.56;10408267;28;98933;-75
2022/11/20 00:12:42;;;;;;;17.92;9.73;;;;;;;11.51;100.00;100950.97;10408548;28;98983;-75
2022/11/20 00:17:47;;;;;;;17.02;11.98;;;;;;;11.50;100.00;100957.13;10408514;28;97069;-75
2022/11/20 00:22:51;;;;;;;14.98;10.00;;;;;;;11.50;100.00;100970.22;10408429;27;97105;-75
2022/11/20 00:27:54;;;;;;;12.60;9.48;;;;;;;11.51;100.00;100971.06;10403616;28;98850;-75
2022/11/20 00:32:59;;;;;;;17.42;11.50;;;;;;;11.55;100.00;100970.97;10407950;28;97645;-78
2022/11/20 00:38:02;;;;;;;17.35;9.50;;;;;;;11.54;100.00;100960.53;10409533;28;99836;-78
2022/11/20 00:43:05;;;;;;;15.50;9.15;;;;;;;11.58;100.00;100958.69;10404491;28;99298;-77
2022/11/20 00:48:10;;;;;;;17.58;9.88;;;;;;;11.55;100.00;100962.22;10407800;28;97498;-78
2022/11/20 00:53:13;;;;;;;14.07;9.00;;;;;;;11.49;100.00;100958.03;10406617;28;99164;-75
2022/11/20 00:58:16;;;;;;;15.90;9.30;;;;;;;11.47;100.00;100951.97;10403160;28;99003;-75
2022/11/20 01:03:21;;;;;;;16.80;9.88;;;;;;;11.49;100.00;100962.41;10408269;28;96976;-76
2022/11/20 01:08:31;;;;;;;14.30;9.77;;;;;;;11.50;100.00;100959.75;10407202;28;99079;-77
2022/11/20 01:13:38;;;;;;;12.50;9.38;;;;;;;11.57;100.00;100960.44;10406421;28;98724;-75
2022/11/20 01:18:44;;;;;;;13.57;10.13;;;;;;;11.54;100.00;100945.66;10407056;28;97626;-77
2022/11/20 01:23:49;;;;;;;21.73;10.63;;;;;;;11.54;100.00;100934.34;10405282;27;99324;-78
2022/11/20 01:28:53;;;;;;;12.63;7.95;;;;;;;11.52;100.00;100933.53;10406610;28;98377;-75
2022/11/20 01:34:00;;;;;;;15.13;9.55;;;;;;;11.54;100.00;100929.09;10401664;28;98592;-75
2022/11/20 01:39:06;;;;;;;15.77;10.90;;;;;;;11.55;100.00;100915.97;10405856;28;97049;-78
2022/11/20 01:44:14;;;;;;;15.70;9.60;;;;;;;11.54;100.00;100914.22;10399824;28;98876;-78
2022/11/20 01:49:23;;;;;;;16.75;10.25;;;;;;;11.55;100.00;100907.22;10404900;28;98510;-75
2022/11/20 01:54:30;;;;;;;13.20;9.50;;;;;;;11.54;100.00;100905.53;10404510;28;96981;-75
2022/11/20 01:59:35;;;;;;;14.20;9.02;;;;;;;11.55;100.00;100899.38;10396378;28;99388;-75
2022/11/20 02:04:39;;;;;;;13.73;9.13;;;;;;;11.54;100.00;100893.28;10401284;28;99161;-78
2022/11/20 02:09:43;;;;;;;16.15;9.73;;;;;;;11.52;100.00;100904.72;10401174;28;97854;-78
2022/11/20 02:14:46;;;;;;;11.15;7.85;;;;;;;11.53;100.00;100901.19;10401585;28;98485;-77
2022/11/20 02:19:51;;;;;;;15.73;10.07;;;;;;;11.58;100.00;100908.94;10400865;28;98752;-75
2022/11/20 02:24:56;;;;;;;17.98;11.32;;;;;;;11.57;100.00;100892.31;10402991;28;96840;-75
2022/11/20 02:30:01;;;;;;;;;;;;;;;11.54;100.00;100881.97;10410623;27;98868;-75
2022/11/20 02:35:10;;;;;;;17.50;9.73;;;;;;;11.59;100.00;100884.44;10409077;28;97079;-77
2022/11/20 02:40:14;;;;;;;18.30;9.82;;;;;;;11.62;100.00;100876.50;10407400;28;96863;-78
2022/11/20 02:45:18;;;;;;;15.00;9.98;;;;;;;11.64;100.00;100875.56;10412301;28;97297;-75
2022/11/20 02:50:21;;;;;;;18.10;11.18;;;;;;;11.63;100.00;100868.59;10412395;28;97621;-75
2022/11/20 02:55:26;;;;;;;15.20;10.52;;;;;;;11.64;100.00;100866.84;10404140;28;98982;-75
2022/11/20 03:00:29;;;;;;;18.25;10.15;;;;;;;11.63;100.00;100881.72;10409054;28;97977;-75
2022/11/20 03:05:33;;;;;;;16.00;9.75;;;;;;;11.64;100.00;100875.56;10401815;28;98627;-77
2022/11/20 03:10:37;;;;;;;18.85;10.77;;;;;;;11.65;100.00;100863.31;10407334;28;98564;-78
2022/11/20 03:15:41;;;;;;;19.05;11.05;;;;;;;11.64;100.00;100862.47;10409401;28;97187;-75
2022/11/20 03:20:44;;;;;;;12.23;8.55;;;;;;;11.66;100.00;100862.41;10409210;28;98832;-75
2022/11/20 03:25:49;;;;;;;13.80;8.85;;;;;;;11.67;100.00;100862.38;10409784;28;98009;-76
2022/11/20 03:30:52;;;;;;;16.20;9.18;;;;;;;11.67;100.00;100862.38;10406905;28;97343;-74
2022/11/20 03:35:55;;;;;;;11.35;7.60;;;;;;;11.66;100.00;100863.28;10409981;28;97178;-74
2022/11/20 03:41:01;;;;;;;18.02;9.65;;;;;;;11.66;100.00;100838.84;10401582;27;98732;-75
2022/11/20 03:46:06;;;;;;;18.30;10.23;;;;;;;11.64;100.00;100824.94;10410608;28;97526;-75
2022/11/20 03:51:13;;;;;;;17.67;9.80;;;;;;;11.65;100.00;100827.50;10403543;28;96875;-77
2022/11/20 03:56:21;;;;;;;16.70;9.55;;;;;;;11.66;100.00;100818.75;10406469;28;96987;-77
2022/11/20 04:01:26;;;;;;;15.77;8.60;;;;;;;11.66;100.00;100813.53;10406829;28;99421;-75
2022/11/20 04:06:31;;;;;;;10.02;7.15;;;;;;;11.66;100.00;100824.00;10409512;28;97127;-77
2022/11/20 04:11:37;;;;;;;11.77;7.65;;;;;;;11.67;100.00;100825.69;10403403;28;96947;-77
2022/11/20 04:16:41;;;;;;;12.60;7.32;;;;;;;11.71;100.00;100826.47;10407845;28;98340;-77
2022/11/20 04:21:45;;;;;;;11.13;5.90;;;;;;;11.71;100.00;100814.25;10407211;28;99207;-75
2022/11/20 04:26:49;;;;;;;9.55;5.95;;;;;;;11.72;100.00;100802.84;10408468;28;98160;-77
2022/11/20 04:31:53;;;;;;;10.52;5.22;;;;;;;11.77;100.00;100813.22;10408200;28;99689;-75
2022/11/20 04:36:56;;;;;;;7.88;5.32;;;;;;;11.79;100.00;100815.78;10407958;28;96983;-77
2022/11/20 04:47:22;;;;;;;5.80;3.00;;;;;;;11.87;100.00;100822.53;10405397;28;96947;-74
2022/11/20 04:52:25;;;;;;;5.68;2.22;;;;;;;11.90;100.00;100826.81;10404170;28;98356;-77
2022/11/20 04:57:30;;;;;;;5.63;1.80;;;;;;;11.98;100.00;100814.38;10404803;28;97546;-74
2022/11/20 05:02:33;;;;;;;4.95;2.15;;;;;;;12.02;100.00;100809.88;10403472;28;99325;-74
2022/11/20 05:07:36;;;;;;;4.18;1.60;;;;;;;12.05;100.00;100823.75;10405860;28;97561;-77
2022/11/20 05:12:41;;;;;;;2.85;1.70;;;;;;;12.10;100.00;100821.88;10406402;28;99959;-75
2022/11/20 05:17:48;;;;;;;3.60;1.65;;;;;;;12.12;100.00;100825.28;10404600;28;99528;-75
2022/11/20 05:22:51;;;;;;;7.25;3.88;;;;;;;12.05;100.00;100810.66;10406036;28;99342;-74
2022/11/20 05:27:56;;;;;;;3.25;2.22;;;;;;;12.07;100.00;100819.31;10407190;28;98993;-74
2022/11/20 05:32:59;;;;;;;4.57;2.40;;;;;;;12.13;100.00;100813.06;10404547;28;98433;-75
2022/11/20 05:38:03;;;;;;;4.65;2.33;;;;;;;12.15;100.00;100821.75;10405892;28;97421;-77
2022/11/20 05:43:07;;;;;;;2.72;1.42;;;;;;;12.11;100.00;100810.50;10399781;28;99253;-74
2022/11/20 05:48:11;;;;;;;2.95;1.70;;;;;;;12.17;100.00;100813.84;10405991;28;98577;-77
2022/11/20 05:53:14;;;;;;;4.20;1.52;;;;;;;12.16;100.00;100810.34;10403608;28;96864;-77
2022/11/20 05:58:19;;;;;;;1.00;0.77;;;;;;;12.20;100.00;100819.00;10405995;28;97874;-77
2022/11/20 06:03:22;;;;;;;1.42;0.60;;;;;;;12.27;100.00;100817.91;10403237;27;98771;-74
2022/11/20 06:08:25;;;;;;;1.95;0.80;;;;;;;12.32;100.00;100818.63;10411981;28;97380;-77
2022/11/20 06:13:30;;;;;;;1.20;0.32;;;;;;;12.37;100.00;100818.47;10413363;28;97652;-77
2022/11/20 06:18:33;;;;;;;1.48;0.38;;;;;;;12.43;100.00;100821.75;10411275;28;99349;-75
2022/11/20 06:23:38;;;;;;;1.80;0.35;;;;;;;12.49;100.00;100828.56;10411514;28;99526;-74
2022/11/20 06:28:43;;;;;;;1.23;0.40;;;;;;;12.52;100.00;100830.25;10408317;28;96937;-74
2022/11/20 06:33:46;;;;;;;;;;;;;;;12.50;100.00;100823.28;10413046;28;99067;-74
2022/11/20 06:38:49;;;;;;;0.98;0.40;;;;;;;12.57;100.00;100833.59;10411908;28;96992;-74
2022/11/20 06:43:54;;;;;;;0.82;0.40;;;;;;;12.55;100.00;100838.91;10411035;28;99206;-74
2022/11/20 06:48:58;;;;;;;1.02;0.38;;;;;;;12.57;100.00;100849.34;10401201;28;96960;-74
2022/11/20 06:54:01;;;;;;;0.93;0.30;;;;;;;12.61;100.00;100846.59;10411714;28;96886;-74
2022/11/20 06:59:06;;;;;;;2.55;0.50;;;;;;;12.57;100.00;100833.59;10404707;28;99187;-74
2022/11/20 07:04:10;;;;;;;2.97;0.65;;;;;;;12.57;100.00;100831.84;10408486;28;98778;-74
2022/11/20 07:09:13;;;;;;;0.45;0.30;;;;;;;12.60;100.00;100844.00;10409864;28;98441;-74
2022/11/20 07:14:18;;;;;;;1.33;0.20;;;;;;;12.70;100.00;100863.81;10402775;28;98782;-74
2022/11/20 07:19:21;;;;;;;0.90;0.40;;;;;;;12.76;100.00;100863.59;10404606;28;98159;-77
2022/11/20 07:24:25;;;;;;;1.80;0.38;;;;;;;12.78;100.00;100867.03;10412670;28;98400;-74
2022/11/20 07:29:29;;;;;;;0.98;0.60;;;;;;;12.76;100.00;100863.59;10404818;28;99654;-74
2022/11/20 07:34:33;;;;;;;1.40;0.60;;;;;;;12.78;100.00;100869.66;10406317;28;97194;-74
2022/11/20 07:39:36;;;;;;;2.85;0.40;;;;;;;12.77;100.00;100873.22;10407737;28;98393;-73
2022/11/20 07:44:41;;;;;;;1.88;0.40;;;;;;;12.78;100.00;100884.56;10406003;28;99016;-74
2022/11/20 07:49:44;;;;;;;0.82;0.40;;;;;;;12.80;100.00;100883.59;10407674;28;97602;-74
2022/11/20 07:54:47;;;;;;;2.08;0.43;;;;;;;12.87;100.00;100890.38;10407123;28;97561;-74
2022/11/20 07:59:52;;;;;;;0.88;0.50;;;;;;;12.88;100.00;100892.09;10406133;28;98074;-74
2022/11/20 08:04:55;;;;;;;0.98;0.25;;;;;;;12.92;100.00;100892.03;10406297;28;98148;-77
2022/11/20 08:09:58;;;;;;;2.72;0.52;;;;;;;12.92;100.00;100903.38;10406448;27;98896;-74
2022/11/20 08:15:04;;;;;;;6.43;1.25;;;;;;;12.86;100.00;100920.16;10408145;28;98643;-74
2022/11/20 08:20:14;;;;;;;3.20;0.70;;;;;;;12.77;100.00;100923.06;10400673;28;98394;-75
2022/11/20 08:25:18;;;;;;;3.20;0.70;;;;;;;12.83;100.00;100936.00;10407971;27;97077;-75
2022/11/20 08:30:22;;;;;;;82.85;42.40;;;;;;;12.92;100.00;100944.53;10400763;28;99523;-73
2022/11/20 08:35:26;;;;;;;9.27;4.35;;;;;;;12.94;100.00;100953.22;10397613;28;98880;-74
2022/11/20 08:40:29;;;;;;;9.25;8.30;;;;;;;12.98;100.00;100950.47;10406119;28;97824;-74
2022/11/20 08:45:35;;;;;;;39.47;35.40;;;;;;;13.04;100.00;100955.50;10358831;28;97694;-76
2022/11/20 08:50:38;;;;;;;10.55;8.98;;;;;;;13.08;100.00;100961.50;10362416;28;98274;-75
2022/11/20 08:55:41;;;;;;;6.28;4.85;;;;;;;13.15;100.00;100963.06;10359211;28;98186;-74
2022/11/20 09:00:46;;;;;;;7.57;5.20;;;;;;;13.18;100.00;100957.69;10355117;28;96954;-74
2022/11/20 09:05:50;;;;;;;8.20;6.60;;;;;;;13.21;100.00;100967.25;10363959;28;99335;-74
2022/11/20 09:10:54;;;;;;;2.50;1.53;;;;;;;13.26;100.00;100981.09;10358670;28;98961;-74
2022/11/20 09:16:00;;;;;;;2.92;2.05;;;;;;;13.23;100.00;100981.19;10355444;28;97869;-74
2022/11/20 09:21:05;;;;;;;3.67;1.50;;;;;;;13.22;100.00;100972.47;10359946;28;97313;-73
2022/11/20 09:31:27;;;;;;;2.75;1.58;;;;;;;13.21;100.00;100983.88;10641107;23;98599;-79
2022/11/20 09:36:31;;;;;;;;;;;;;;;13.12;100.00;100989.41;10229780;28;98834;-77
2022/11/20 09:41:50;;;;;;;3.38;2.72;;;;;;;13.23;100.00;100987.31;10240534;28;98505;-79
2022/11/20 09:47:01;;;;;;;3.88;1.40;;;;;;;13.33;100.00;100987.03;10246437;28;99325;-78
2022/11/20 09:52:16;;;;;;;2.70;1.40;;;;;;;13.44;100.00;100991.00;10242492;28;97421;-76
2022/11/20 09:57:22;;;;;;;7.75;4.82;;;;;;;13.62;100.00;100994.84;10251285;28;97253;-76
2022/11/20 10:02:31;;;;;;;3.05;1.60;;;;;;;13.71;100.00;101000.69;10252584;28;97073;-79
2022/11/20 10:07:40;;;;;;;19.40;15.85;;;;;;;13.77;100.00;101011.00;10253288;28;97161;-78
2022/11/20 10:13:04;;;;;;;4.07;2.47;;;;;;;13.78;100.00;101015.34;10254590;28;99236;-78
2022/11/20 10:18:30;;;;;;;4.88;2.28;;;;;;;13.70;100.00;101004.22;10255868;28;96929;-79
2022/11/20 10:24:00;;;;;;;4.13;2.33;;;;;;;13.65;100.00;101008.78;10251026;28;96894;-78
2022/11/20 10:29:13;;;;;;;1.70;1.25;;;;;;;13.68;100.00;101006.06;10251842;28;97030;-78
2022/11/20 10:34:25;;;;;;;2.78;1.52;;;;;;;13.72;100.00;101016.41;10246762;28;98105;-79
2022/11/20 10:39:36;;;;;;;5.13;3.20;;;;;;;13.82;100.00;101014.34;10239861;28;96739;-79
2022/11/20 10:45:03;;;;;;;3.28;2.28;;;;;;;13.85;100.00;101024.75;10253835;28;96901;-86
2022/11/20 10:50:19;;;;;;;2.60;1.83;;;;;;;13.80;100.00;101016.16;10252958;28;96776;-84
2022/11/20 10:55:30;;;;;;;;;;;;;;;13.71;100.00;101008.59;10244091;28;96926;-88
2022/11/20 11:00:34;;;;;;;7.20;2.72;;;;;;;13.72;100.00;101008.50;10243628;28;97188;-84
2022/11/20 11:05:50;;;;;;;2.58;1.90;;;;;;;13.85;100.00;101011.59;10251855;28;98694;-82
2022/11/20 11:10:57;;;;;;;3.67;2.03;;;;;;;13.94;100.00;101011.28;10239664;28;98709;-81
2022/11/20 11:16:00;;;;;;;3.88;2.50;;;;;;;14.06;100.00;101006.53;10247603;28;99094;-80
2022/11/20 11:21:06;;;;;;;9.68;7.55;;;;;;;14.10;100.00;100997.63;10250664;28;96957;-80
2022/11/20 11:26:21;;;;;;;3.88;2.45;;;;;;;14.09;100.00;101003.78;10249966;28;97762;-79
2022/11/20 11:31:26;;;;;;;2.20;1.75;;;;;;;14.10;100.00;100995.00;10248855;28;96861;-79
2022/11/20 11:36:31;;;;;;;3.33;2.10;;;;;;;14.10;100.00;100995.00;10249139;28;96870;-78
2022/11/20 11:41:35;;;;;;;2.30;1.58;;;;;;;14.14;100.00;100994.84;10247883;28;97511;-78
2022/11/20 11:46:40;;;;;;;4.13;2.40;;;;;;;14.16;100.00;100979.84;10247943;28;97796;-79
2022/11/20 11:51:54;;;;;;;34.85;27.38;;;;;;;14.22;100.00;100980.56;10250066;28;96915;-81
2022/11/20 11:57:01;;;;;;;12.32;9.02;;;;;;;14.27;100.00;100966.31;10246481;28;96882;-83
2022/11/20 12:02:17;;;;;;;7.80;5.90;;;;;;;14.38;100.00;100971.22;10246746;28;97867;-81
2022/11/20 12:07:36;;;;;;;3.72;2.97;;;;;;;14.42;100.00;100957.06;10249845;28;99325;-80
2022/11/20 12:12:55;;;;;;;15.88;4.22;;;;;;;14.40;100.00;100944.84;10245907;28;96855;-84
2022/11/20 12:17:58;;;;;;;3.85;2.85;;;;;;;14.37;100.00;100930.91;10247464;28;96910;-86
2022/11/20 12:23:14;;;;;;;4.05;3.25;;;;;;;14.42;100.00;100920.22;10241820;28;97653;-83
2022/11/20 12:28:31;;;;;;;2.47;1.75;;;;;;;14.41;100.00;100920.28;10249896;28;96834;-81
2022/11/20 12:33:50;;;;;;;4.40;2.58;;;;;;;14.39;100.00;100906.31;10247273;28;97016;-87
2022/11/20 12:39:08;;;;;;;2.72;2.33;;;;;;;14.36;100.00;100905.50;10243492;28;99456;-86
2022/11/20 12:49:56;;;;;;;3.50;2.20;;;;;;;14.45;100.00;100875.34;10216450;28;97773;-84
2022/11/20 12:55:37;;;;;;;3.05;2.30;;;;;;;14.48;100.00;100890.16;10246922;28;96940;-81
2022/11/20 13:00:49;;;;;;;3.50;2.35;;;;;;;14.53;100.00;100882.97;10248389;28;96891;-85
2022/11/20 13:06:01;;;;;;;2.63;2.30;;;;;;;14.56;100.00;100880.22;10245958;28;97252;-84
2022/11/20 13:11:14;;;;;;;2.63;2.15;;;;;;;14.60;100.00;100873.91;10243534;28;97886;-85
2022/11/20 13:16:21;;;;;;;3.33;2.30;;;;;;;14.64;100.00;100869.38;10238683;28;98943;-84
2022/11/20 13:21:37;;;;;;;4.78;2.72;;;;;;;14.73;100.00;100869.88;10248292;28;97097;-81
2022/11/20 13:26:42;;;;;;;2.97;2.50;;;;;;;14.79;100.00;100852.97;10248621;28;97008;-82
2022/11/20 13:31:47;;;;;;;2.50;2.10;;;;;;;14.78;100.00;100855.66;10247747;28;97337;-81
2022/11/20 13:36:51;;;;;;;3.45;2.28;;;;;;;14.79;100.00;100855.63;10245117;28;96957;-83
2022/11/20 13:41:58;;;;;;;1.70;1.40;;;;;;;14.86;100.00;100859.72;10248153;28;96840;-83
2022/11/20 13:47:01;;;;;;;1.65;1.30;;;;;;;14.78;100.00;100855.66;10241484;28;98647;-79
2022/11/20 13:52:29;;;;;;;2.80;1.27;;;;;;;14.70;100.00;100858.63;10243100;28;97502;-86
2022/11/20 13:58:11;;;;;;;1.33;1.23;;;;;;;14.73;100.00;100843.56;10242768;28;97819;-87
2022/11/20 14:03:20;;;;;;;1.42;1.10;;;;;;;14.80;100.00;100835.41;10232563;28;100976;-86
2022/11/20 14:08:46;;;;;;;1.85;1.10;;;;;;;14.81;100.00;100830.06;10252801;28;96992;-84
2022/11/20 14:13:59;;;;;;;2.22;1.50;;;;;;;14.89;100.00;100828.00;10243775;28;97053;-89
2022/11/20 14:19:30;;;;;;;2.05;1.25;;;;;;;14.96;100.00;100828.59;10240947;28;98584;-87
2022/11/20 14:24:33;;;;;;;2.65;1.10;;;;;;;14.90;100.00;100834.13;10246021;28;97228;-88
2022/11/20 14:29:38;;;;;;;1.27;1.13;;;;;;;14.78;100.00;100830.19;10248195;28;96922;-85
2022/11/20 14:34:46;;;;;;;1.20;1.00;;;;;;;14.84;100.00;100829.13;10250687;28;97060;-86
2022/11/20 14:39:53;;;;;;;1.60;1.30;;;;;;;14.85;100.00;100825.53;10252115;28;99261;-85
2022/11/20 14:44:59;;;;;;;3.63;1.58;;;;;;;14.91;100.00;100820.03;10249666;28;97018;-87
2022/11/20 14:50:13;;;;;;;4.20;1.10;;;;;;;14.89;100.00;100812.19;10247202;28;99119;-88
2022/11/20 14:55:28;;;;;;;3.42;1.42;;;;;;;14.87;100.00;100807.91;10248044;28;97179;-84
2022/11/20 15:00:35;;;;;;;1.88;1.30;;;;;;;14.81;100.00;100795.00;10254096;28;96938;-81
2022/11/20 15:05:49;;;;;;;2.88;1.35;;;;;;;14.77;100.00;100794.28;10249273;28;97072;-82
2022/11/20 15:10:54;;;;;;;2.93;1.67;;;;;;;14.77;100.00;100788.16;10251942;28;96823;-83
2022/11/20 15:16:02;;;;;;;1.75;1.30;;;;;;;14.81;100.00;100793.22;10248020;28;96859;-85
2022/11/20 15:21:13;;;;;;;2.20;1.25;;;;;;;14.83;100.00;100791.38;10234737;28;96947;-87
2022/11/20 15:26:28;;;;;;;2.70;1.27;;;;;;;14.91;100.00;100783.19;10251448;28;96860;-82
2022/11/20 15:31:41;;;;;;;1.98;1.10;;;;;;;14.96;100.00;100786.47;10245445;28;97304;-75
2022/11/20 15:36:45;;;;;;;2.55;1.55;;;;;;;14.96;100.00;100785.59;10245129;28;98991;-76
2022/11/20 15:41:48;;;;;;;2.35;1.30;;;;;;;14.89;100.00;100774.50;10249487;28;97452;-75
2022/11/20 15:46:52;;;;;;;1.77;1.20;;;;;;;14.84;100.00;100769.41;10244847;28;97079;-79
2022/11/20 15:51:56;;;;;;;1.52;1.10;;;;;;;14.81;100.00;100766.03;10246588;28;97341;-77
2022/11/20 15:57:00;;;;;;;4.05;1.20;;;;;;;14.74;100.00;100765.44;10250027;28;96926;-79
2022/11/20 16:02:03;;;;;;;2.70;0.97;;;;;;;14.75;100.00;100769.78;10247948;28;96902;-79
2022/11/20 16:07:08;;;;;;;2.97;1.00;;;;;;;14.76;100.00;100763.59;10247507;28;96908;-82
2022/11/20 16:15:44;;;;;;;1.65;0.90;;;;;;;14.76;100.00;100774.13;10245102;28;96875;-78
2022/11/20 16:17:43;;;;;;;1.73;1.20;;;;;;;14.70;100.00;100777.03;10250891;28;99144;-82
2022/11/20 16:22:47;;;;;;;2.28;1.65;;;;;;;14.70;100.00;100784.91;10243663;28;98501;-85
2022/11/20 16:27:51;;;;;;;1.98;1.50;;;;;;;14.68;100.00;100787.59;10211993;28;96984;-87
2022/11/20 16:32:54;;;;;;;1.95;1.30;;;;;;;14.68;100.00;100784.97;10212886;28;96633;-86
2022/11/20 16:37:59;;;;;;;2.25;1.70;;;;;;;14.71;100.00;100776.97;10212468;28;97001;-86
2022/11/20 16:43:09;;;;;;;3.92;1.55;;;;;;;14.70;100.00;100777.88;10214016;28;97036;-86
2022/11/20 16:48:14;;;;;;;3.00;1.90;;;;;;;14.72;100.00;100770.75;10211782;28;96923;-87
2022/11/20 16:53:19;;;;;;;;;;;;;;;14.67;100.00;100777.97;10212540;28;96717;-88
2022/11/20 16:58:22;;;;;;;3.17;1.70;;;;;;;14.70;100.00;100774.38;10210534;28;96847;-87
2022/11/20 17:03:25;;;;;;;3.10;1.83;;;;;;;14.72;100.00;100773.38;10212507;28;96780;-87
2022/11/20 17:08:30;;;;;;;3.42;1.92;;;;;;;14.74;100.00;100755.75;10213074;28;97127;-87
2022/11/20 17:13:33;;;;;;;4.72;2.38;;;;;;;14.79;100.00;100755.56;10252093;28;96750;-86
2022/11/20 17:18:42;;;;;;;2.20;1.77;;;;;;;14.78;100.00;100753.00;10230102;28;96693;-87
2022/11/20 17:23:47;;;;;;;4.75;2.15;;;;;;;14.77;100.00;100744.25;10211448;28;96894;-87
2022/11/20 17:28:53;;;;;;;;;;;;;;;14.71;100.00;100750.63;10210563;28;96767;-87
2022/11/20 17:33:58;;;;;;;5.03;1.70;;;;;;;14.74;100.00;100745.22;10212592;28;96838;-87
2022/11/20 17:39:03;;;;;;;2.67;1.60;;;;;;;14.70;100.00;100748.06;10210787;28;97316;-87
2022/11/20 17:44:06;;;;;;;3.58;1.52;;;;;;;14.67;100.00;100751.66;10210932;28;96960;-86
2022/11/20 17:49:09;;;;;;;1.90;1.55;;;;;;;14.62;100.00;100751.00;10209443;28;96715;-86
2022/11/20 17:54:15;;;;;;;2.80;1.90;;;;;;;14.59;100.00;100756.38;10211221;28;96791;-87
2022/11/20 17:59:19;;;;;;;2.53;1.80;;;;;;;14.58;100.00;100748.56;10213341;28;96832;-87
2022/11/20 18:04:22;;;;;;;2.70;1.83;;;;;;;14.59;100.00;100751.13;10217370;28;96888;-86
2022/11/20 18:09:27;;;;;;;4.50;1.92;;;;;;;14.65;100.00;100737.72;10226757;28;96706;-86
2022/11/20 18:14:33;;;;;;;;;;;;;;;14.62;100.00;100727.31;10257791;28;96787;-85
2022/11/20 18:19:38;;;;;;;2.95;1.65;;;;;;;14.67;100.00;100724.50;10257545;28;96707;-86
2022/11/20 18:24:54;;;;;;;3.33;1.85;;;;;;;14.73;100.00;100732.13;10251168;28;97350;-85
2022/11/20 18:29:57;;;;;;;4.13;2.10;;;;;;;14.79;100.00;100731.88;10216585;28;97294;-85
2022/11/20 18:35:01;;;;;;;3.50;1.67;;;;;;;14.80;100.00;100716.94;10216500;28;96726;-85
2022/11/20 18:40:07;;;;;;;4.18;1.73;;;;;;;14.84;100.00;100718.53;10215449;28;96667;-86
2022/11/20 18:45:10;;;;;;;2.38;1.48;;;;;;;14.80;100.00;100706.41;10216857;28;96903;-87
2022/11/20 18:50:13;;;;;;;2.13;1.20;;;;;;;14.72;100.00;100689.16;10237847;28;96833;-86
2022/11/20 18:55:18;;;;;;;2.03;1.20;;;;;;;14.75;100.00;100689.03;10256788;28;96981;-86
2022/11/20 19:00:22;;;;;;;1.58;1.15;;;;;;;14.78;100.00;100695.09;10237534;28;96756;-86
2022/11/20 19:05:26;;;;;;;2.10;1.20;;;;;;;14.77;100.00;100685.50;10215783;28;96688;-86
2022/11/20 19:10:31;;;;;;;4.10;1.33;;;;;;;14.81;100.00;100694.97;10243091;28;97122;-85
2022/11/20 19:15:36;;;;;;;1.80;1.45;;;;;;;14.80;100.00;100695.88;10251964;28;97337;-85
2022/11/20 19:20:39;;;;;;;1.23;1.00;;;;;;;14.78;100.00;100692.44;10215422;28;97040;-85
2022/11/20 19:25:44;;;;;;;1.10;1.00;;;;;;;14.81;100.00;100689.69;10214812;28;97010;-85
2022/11/20 19:30:47;;;;;;;1.30;1.17;;;;;;;14.80;100.00;100686.22;10212692;28;96671;-84
2022/11/20 19:35:50;;;;;;;1.95;0.82;;;;;;;14.79;100.00;100678.38;10215275;28;96810;-87
2022/11/20 19:40:55;;;;;;;1.75;0.98;;;;;;;14.75;100.00;100673.25;10214403;28;97199;-85
2022/11/20 19:45:58;;;;;;;1.60;1.00;;;;;;;14.73;100.00;100675.09;10214068;28;96829;-86
2022/11/20 19:51:09;;;;;;;1.90;0.90;;;;;;;14.71;100.00;100666.41;10214624;28;96735;-86
2022/11/20 19:56:14;;;;;;;1.67;1.00;;;;;;;14.73;100.00;100663.69;10213734;28;96965;-85
2022/11/20 20:01:18;;;;;;;;;;;;;;;14.65;100.00;100661.38;10213966;28;97018;-85
2022/11/20 20:06:23;;;;;;;2.75;1.20;;;;;;;14.70;100.00;100654.16;10215068;28;97713;-87
2022/11/20 20:11:30;;;;;;;3.97;1.40;;;;;;;14.70;100.00;100654.16;10213015;28;96551;-86
2022/11/20 20:16:34;;;;;;;1.65;0.80;;;;;;;14.72;100.00;100654.09;10213033;28;97152;-86
2022/11/20 20:21:37;;;;;;;0.83;0.77;;;;;;;14.74;100.00;100655.72;10211103;28;97211;-84
2022/11/20 20:26:42;;;;;;;1.38;0.95;;;;;;;14.78;100.00;100660.84;10242119;28;96758;-86
2022/11/20 20:31:46;;;;;;;0.90;0.60;;;;;;;14.72;100.00;100664.63;10252594;28;96823;-86
2022/11/20 20:36:49;;;;;;;2.22;0.90;;;;;;;14.70;100.00;100648.88;10253125;28;96707;-85
2022/11/20 20:41:56;;;;;;;2.78;1.00;;;;;;;14.65;100.00;100645.59;10252189;28;96857;-85
2022/11/20 20:47:00;;;;;;;2.85;1.10;;;;;;;14.68;100.00;100641.97;10252854;28;96760;-86
2022/11/20 20:52:07;;;;;;;2.63;0.77;;;;;;;14.66;100.00;100631.53;10252439;28;96793;-86
2022/11/20 20:57:13;;;;;;;2.83;0.80;;;;;;;14.71;100.00;100624.28;10251729;28;96771;-86
2022/11/20 21:02:16;;;;;;;2.80;1.00;;;;;;;14.72;100.00;100619.88;10212067;28;96782;-84
2022/11/20 21:07:20;;;;;;;1.10;0.70;;;;;;;14.70;100.00;100617.28;10211833;28;96737;-85
2022/11/20 21:12:26;;;;;;;1.57;0.70;;;;;;;14.73;100.00;100622.44;10210512;28;96703;-85
2022/11/20 21:17:30;;;;;;;1.85;0.80;;;;;;;14.75;100.00;100625.84;10211921;28;97000;-84
2022/11/20 21:22:34;;;;;;;2.55;0.80;;;;;;;14.77;100.00;100628.41;10211464;28;97286;-85
2022/11/20 21:27:39;;;;;;;2.05;0.70;;;;;;;14.79;100.00;100625.72;10211215;28;96874;-86
2022/11/20 21:32:43;;;;;;;2.17;0.60;;;;;;;14.81;100.00;100632.63;10211307;28;96697;-86
2022/11/20 21:37:46;;;;;;;1.27;0.90;;;;;;;14.80;100.00;100628.28;10210477;28;96691;-85
2022/11/20 21:42:50;;;;;;;2.60;0.90;;;;;;;14.82;100.00;100617.66;10211025;28;96899;-85
2022/11/20 21:47:54;;;;;;;1.58;0.85;;;;;;;14.82;100.00;100615.03;10211264;28;97171;-85
2022/11/20 21:52:57;;;;;;;2.75;1.10;;;;;;;14.81;100.00;100626.50;10281480;28;96804;-86
2022/11/20 21:58:01;;;;;;;2.28;1.02;;;;;;;14.82;100.00;100626.44;10290951;28;96947;-85
2022/11/20 22:03:05;;;;;;;1.55;1.00;;;;;;;14.82;100.00;100628.19;10290423;28;96717;-85
2022/11/20 22:08:08;;;;;;;1.45;0.80;;;;;;;14.83;100.00;100608.88;10240124;28;96782;-85
2022/11/20 22:18:33;;;;;;;2.58;1.05;;;;;;;14.88;100.00;100609.50;10209538;28;96760;-85
2022/11/20 22:23:36;;;;;;;2.55;0.93;;;;;;;14.90;100.00;100597.13;10210541;28;96681;-85
2022/11/20 22:28:42;;;;;;;3.72;0.90;;;;;;;14.88;100.00;100604.25;10209111;28;96853;-85
2022/11/20 22:33:45;;;;;;;5.20;1.10;;;;;;;14.88;100.00;100588.44;10209682;28;96735;-88
2022/11/20 22:38:48;;;;;;;1.60;1.10;;;;;;;14.93;100.00;100602.28;10209986;28;97179;-87
2022/11/20 22:43:56;;;;;;;3.28;0.98;;;;;;;14.91;100.00;100576.00;10211111;28;96727;-86
2022/11/20 22:49:00;;;;;;;2.17;0.75;;;;;;;14.91;100.00;100596.22;10224306;28;96893;-85
2022/11/20 22:54:04;;;;;;;2.08;0.77;;;;;;;14.93;100.00;100587.31;10255052;28;96885;-85
2022/11/20 22:59:09;;;;;;;2.22;0.85;;;;;;;14.90;100.00;100589.22;10230858;28;97945;-86
2022/11/20 23:04:12;;;;;;;1.67;0.60;;;;;;;14.93;100.00;100586.47;10215675;28;96740;-87
2022/11/20 23:09:16;;;;;;;1.50;0.65;;;;;;;14.95;100.00;100581.97;10215384;28;96841;-85
2022/11/20 23:14:21;;;;;;;2.25;0.65;;;;;;;14.92;100.00;100564.56;10216012;28;96905;-87
2022/11/20 23:19:30;;;;;;;0.50;0.40;;;;;;;14.94;100.00;100572.41;10214983;28;96744;-85
2022/11/20 23:24:33;;;;;;;1.70;0.60;;;;;;;14.93;100.00;100582.06;10216155;28;96735;-85
2022/11/20 23:29:39;;;;;;;0.47;0.25;;;;;;;14.88;100.00;100578.75;10215024;28;96945;-87
2022/11/20 23:34:42;;;;;;;0.50;0.32;;;;;;;14.89;100.00;100587.53;10215357;28;96900;-85